< < Back
Terminal Aerodrome Forecast


Current Version              Previous Versions:   1  2  3  4  5  6  7  8  9  

Terminal Aerodrome Forecast

548
FTUS42 KFFC 280520
TAFFTY
TAF
KFTY 280520Z 2806/2906 00000KT P6SM SKC
     FM280900 00000KT P6SM SCT025
     FM281200 07003KT P6SM BKN015
     FM281400 08007KT P6SM BKN020
     FM281700 09008KT P6SM SCT035
     FM290000 10004KT P6SM FEW045 SCT250=



Latest METAR

597
SAUS70 KWBC 281300 RRI
MTRFTY
METAR KFTY 281253Z 09004KT 10SM OVC010 23/21 A3013 RMK AO2 SLP196
T02280206


USA.gov is the U.S. government's official web portal to all federal, state and local government web resources and services.